Time;durP1;ratioP1;P1;durP2;ratioP2;P2;SDS_P1;SDS_P2;PMS_P1;PMS_P2;Temp;Humidity;BMP_temperature;BMP_pressure;BME280_temperature;BME280_humidity;BME280_pressure;Samples;Min_cycle;Max_cycle;Signal;HPM_P1;HPM_P2
2024/01/09 00:00:39;;;;;;;;;;;;;;;-7.23;70.09;101705.09;4940484;28;19926;-81
2024/01/09 00:03:06;;;;;;;;;;;;;;;-7.18;69.72;101716.53;4939729;28;19927;-84
2024/01/09 00:05:32;;;;;;;;;;;;;;;-7.17;70.16;101713.19;4940787;28;19933;-82
2024/01/09 00:07:59;;;;;;;;;;;;;;;-7.20;69.82;101728.28;4937609;28;19927;-83
2024/01/09 00:10:26;;;;;;;;;;;;;;;-7.15;70.15;101721.88;4949341;28;19927;-82
2024/01/09 00:12:53;;;;;;;;;;;;;;;-7.24;69.45;101722.06;4942844;28;20025;-81
2024/01/09 00:15:19;;;;;;;;;;;;;;;-7.23;69.38;101712.75;4937970;28;19932;-82
2024/01/09 00:17:46;;;;;;;;;;;;;;;-7.24;69.29;101722.06;4939374;28;20279;-82
2024/01/09 00:20:13;;;;;;;;;;;;;;;-7.24;69.58;101722.06;4940268;28;19952;-81
2024/01/09 00:22:41;;;;;;;;;;;;;;;-7.25;70.19;101721.94;4942408;28;20017;-81
2024/01/09 00:25:08;;;;;;;;;;;;;;;-7.27;69.63;101726.03;4935052;28;19934;-81
2024/01/09 00:27:35;;;;;;;;;;;;;;;-7.25;69.56;101719.41;4937382;28;19931;-84
2024/01/09 00:30:02;;;;;;;;;;;;;;;-7.28;70.00;101714.94;4932739;28;19931;-83
2024/01/09 00:32:29;;;;;;;;;;;;;;;-7.28;70.11;101714.06;4926545;28;19957;-82
2024/01/09 00:34:56;;;;;;;;;;;;;;;-7.37;69.78;101712.56;4937068;28;20018;-80
2024/01/09 00:37:22;;;;;;;;;;;;;;;-7.36;69.98;101716.91;4940136;28;19927;-83
2024/01/09 00:39:50;;;;;;;;;;;;;;;-7.38;70.34;101718.44;4937519;28;19927;-85
2024/01/09 00:42:17;;;;;;;;;;;;;;;-7.42;70.19;101718.97;4944185;28;20092;-82
2024/01/09 00:44:44;;;;;;;;;;;;;;;-7.41;70.77;101727.53;4940538;28;19927;-81
2024/01/09 00:47:11;;;;;;;;;;;;;;;-7.44;71.17;101717.97;4933050;28;19927;-85
2024/01/09 00:49:38;;;;;;;;;;;;;;;-7.47;70.89;101720.28;4938430;28;19933;-91
2024/01/09 00:52:05;;;;;;;;;;;;;;;-7.47;70.89;101727.94;4934491;28;19981;-82
2024/01/09 00:54:31;;;;;;;;;;;;;;;-7.44;71.20;101723.06;4939984;28;19933;-81
2024/01/09 00:56:58;;;;;;;;;;;;;;;-7.48;71.19;101730.38;4936798;28;19927;-82
2024/01/09 00:59:25;;;;;;;;;;;;;;;-7.51;70.96;101731.00;4938102;28;20396;-85
2024/01/09 01:01:51;;;;;;;;;;;;;;;-7.47;71.02;101727.94;4935251;28;20010;-81
2024/01/09 01:04:18;;;;;;;;;;;;;;;-7.49;71.11;101726.03;4935003;28;20343;-82
2024/01/09 01:06:45;;;;;;;;;;;;;;;-7.54;70.84;101725.66;4941297;28;19937;-84
2024/01/09 01:09:12;;;;;;;;;;;;;;;-7.50;70.85;101732.78;4941605;28;19933;-81
2024/01/09 01:11:39;;;;;;;;;;;;;;;-7.52;70.77;101736.88;4935687;28;19937;-80
2024/01/09 01:14:06;;;;;;;;;;;;;;;-7.55;70.93;101728.97;4934606;28;19927;-81
2024/01/09 01:16:33;;;;;;;;;;;;;;;-7.55;70.41;101739.19;4942102;28;19934;-82
2024/01/09 01:18:59;;;;;;;;;;;;;;;-7.59;70.39;101732.06;4934039;28;19934;-84
2024/01/09 01:21:26;;;;;;;;;;;;;;;-7.53;71.12;101737.63;4935321;28;19931;-80
2024/01/09 01:23:53;;;;;;;;;;;;;;;-7.57;70.88;101739.06;4938799;28;19931;-84
2024/01/09 01:26:20;;;;;;;;;;;;;;;-7.62;70.40;101736.91;4936135;28;19974;-81
2024/01/09 01:28:47;;;;;;;;;;;;;;;-7.60;70.45;101740.47;4945010;28;19927;-80
2024/01/09 01:31:14;;;;;;;;;;;;;;;-7.55;70.71;101736.63;4936120;28;19981;-80
2024/01/09 01:33:40;;;;;;;;;;;;;;;-7.59;70.52;101737.16;4939257;28;19934;-82
2024/01/09 01:36:12;;;;;;;;;;;;;;;-7.66;70.72;101742.53;4933984;28;19978;-82
2024/01/09 01:38:39;;;;;;;;;;;;;;;-7.64;70.77;101743.56;4936727;28;19931;-80
2024/01/09 01:41:06;;;;;;;;;;;;;;;-7.62;70.67;101737.78;4937923;28;19927;-82
2024/01/09 01:43:32;;;;;;;;;;;;;;;-7.66;70.75;101732.34;4945087;28;19987;-81
2024/01/09 01:45:59;;;;;;;;;;;;;;;-7.64;70.69;101724.06;4937077;28;19943;-81
2024/01/09 01:48:26;;;;;;;;;;;;;;;-7.64;71.04;101734.25;4942425;28;19936;-84
2024/01/09 01:50:53;;;;;;;;;;;;;;;-7.58;71.64;101728.75;4936410;28;19933;-85
2024/01/09 01:53:20;;;;;;;;;;;;;;;-7.62;70.80;101731.81;4938124;28;19931;-82
2024/01/09 01:55:46;;;;;;;;;;;;;;;-7.63;71.27;101730.94;4937448;28;19927;-82
2024/01/09 01:58:13;;;;;;;;;;;;;;;-7.66;71.24;101724.69;4939422;28;19942;-83
2024/01/09 02:00:39;;;;;;;;;;;;;;;-7.67;71.68;101721.25;4937871;28;19927;-80
2024/01/09 02:03:06;;;;;;;;;;;;;;;-7.61;71.53;101728.50;4930430;28;19982;-83
2024/01/09 02:05:33;;;;;;;;;;;;;;;-7.64;71.89;101712.97;4941527;28;19935;-81
2024/01/09 02:08:00;;;;;;;;;;;;;;;-7.66;72.07;101727.25;4934431;28;19931;-81
2024/01/09 02:10:26;;;;;;;;;;;;;;;-7.70;71.69;101729.56;4922470;29;19945;-82
2024/01/09 02:12:53;;;;;;;;;;;;;;;-7.69;71.56;101728.78;4938330;28;19926;-87
2024/01/09 02:15:19;;;;;;;;;;;;;;;-7.74;71.53;101722.44;4946233;28;20025;-81
2024/01/09 02:17:46;;;;;;;;;;;;;;;-7.73;71.60;101726.75;4939903;28;19927;-84
2024/01/09 02:20:13;;;;;;;;;;;;;;;-7.71;71.64;101721.78;4934587;29;19934;-83
2024/01/09 02:22:40;;;;;;;;;;;;;;;-7.64;72.46;101712.97;4940000;28;19930;-82
2024/01/09 02:25:06;;;;;;;;;;;;;;;-7.71;71.82;101712.47;4934451;28;19927;-84
2024/01/09 02:27:39;;;;;;;;;;;;;;;-7.71;72.28;101716.69;4941880;28;19934;-81
2024/01/09 02:30:06;;;;;;;;;;;;;;;-7.78;71.76;101715.28;4938638;28;19974;-82
2024/01/09 02:32:33;;;;;;;;;;;;;;;-7.72;71.78;101714.91;4945954;28;19954;-80
2024/01/09 02:35:00;;;;;;;;;;;;;;;-7.75;72.02;101714.66;4923617;29;20375;-81
2024/01/09 02:37:27;;;;;;;;;;;;;;;-7.75;72.25;101707.00;4946742;28;19933;-85
2024/01/09 02:39:57;;;;;;;;;;;;;;;-7.74;72.13;101703.69;4941692;28;20445;-87
2024/01/09 02:42:24;;;;;;;;;;;;;;;-7.66;72.51;101705.22;4941279;28;19942;-83
2024/01/09 02:44:53;;;;;;;;;;;;;;;-7.80;72.22;101705.78;4939668;28;19962;-81
2024/01/09 02:47:24;;;;;;;;;;;;;;;-7.73;73.35;101701.28;4935515;28;19985;-81
2024/01/09 02:49:51;;;;;;;;;;;;;;;-7.78;72.57;101700.00;4938348;28;19927;-83
2024/01/09 02:52:17;;;;;;;;;;;;;;;-7.82;72.50;101708.22;4944419;28;20017;-82
2024/01/09 02:54:44;;;;;;;;;;;;;;;-7.83;72.47;101702.94;4941191;28;19926;-81
2024/01/09 02:57:11;;;;;;;;;;;;;;;-7.80;72.25;101706.66;4937697;28;19934;-82
2024/01/09 02:59:38;;;;;;;;;;;;;;;-7.73;72.20;101701.28;4941338;28;19926;-82
2024/01/09 03:02:05;;;;;;;;;;;;;;;-7.69;72.71;101697.28;4934918;28;19933;-84
2024/01/09 03:04:32;;;;;;;;;;;;;;;-7.80;71.79;101701.56;4932406;28;19927;-81
2024/01/09 03:06:59;;;;;;;;;;;;;;;-7.76;72.84;101698.47;4932339;28;19934;-81
2024/01/09 03:09:26;;;;;;;;;;;;;;;-7.76;72.37;101703.59;4934473;28;19938;-82
2024/01/09 03:11:53;;;;;;;;;;;;;;;-7.83;72.57;101705.50;4935113;28;19933;-81
2024/01/09 03:14:20;;;;;;;;;;;;;;;-7.81;72.44;101699.75;4934554;28;19927;-81
2024/01/09 03:16:48;;;;;;;;;;;;;;;-7.80;72.49;101701.56;4931747;28;19927;-81
2024/01/09 03:19:14;;;;;;;;;;;;;;;-7.80;72.44;101699.00;4947817;28;20317;-81
2024/01/09 03:21:41;;;;;;;;;;;;;;;-7.79;72.37;101699.88;4931590;28;19927;-83
2024/01/09 03:24:09;;;;;;;;;;;;;;;-7.80;72.58;101709.19;4934988;28;19948;-81
2024/01/09 03:26:35;;;;;;;;;;;;;;;-7.88;72.14;101702.59;4935006;28;19934;-82
2024/01/09 03:29:04;;;;;;;;;;;;;;;-7.87;72.29;101696.75;4940771;28;19927;-80
2024/01/09 03:31:31;;;;;;;;;;;;;;;-7.84;72.52;101698.66;4938473;28;19927;-81
2024/01/09 03:33:58;;;;;;;;;;;;;;;-7.86;72.43;101701.97;4939887;28;19926;-85
2024/01/09 03:36:26;;;;;;;;;;;;;;;-7.84;72.75;101699.53;4941960;28;19926;-81
2024/01/09 03:38:55;;;;;;;;;;;;;;;-7.87;72.76;101709.47;4933427;28;19927;-82
2024/01/09 03:41:22;;;;;;;;;;;;;;;-7.89;73.03;101696.63;4943787;28;19949;-81
2024/01/09 03:43:49;;;;;;;;;;;;;;;-7.91;72.99;101710.00;4935031;28;19973;-81
2024/01/09 03:46:16;;;;;;;;;;;;;;;-7.88;73.24;101708.59;4935210;28;19927;-81
2024/01/09 03:48:42;;;;;;;;;;;;;;;-7.91;73.08;101699.81;4932612;28;19933;-82
2024/01/09 03:51:09;;;;;;;;;;;;;;;-7.93;73.02;101703.91;4933280;28;19942;-81
2024/01/09 03:53:36;;;;;;;;;;;;;;;-7.96;73.43;101709.66;4932761;28;19934;-81
2024/01/09 03:56:02;;;;;;;;;;;;;;;-7.94;73.26;101707.22;4932549;28;19927;-82
2024/01/09 03:58:29;;;;;;;;;;;;;;;-7.98;73.58;101700.09;4933190;28;19934;-82
2024/01/09 04:00:56;;;;;;;;;;;;;;;-7.91;74.17;101698.16;4932535;28;19926;-81
2024/01/09 04:03:22;;;;;;;;;;;;;;;-7.94;73.79;101700.44;4936802;28;20017;-82
2024/01/09 04:05:49;;;;;;;;;;;;;;;-7.97;73.86;101691.69;4937143;28;19931;-83
2024/01/09 04:08:16;;;;;;;;;;;;;;;-8.04;73.83;101696.31;4938886;28;19926;-82
2024/01/09 04:10:42;;;;;;;;;;;;;;;-7.96;74.04;101686.72;4938096;28;19962;-82
2024/01/09 04:13:09;;;;;;;;;;;;;;;-8.09;73.83;101687.38;4936282;28;19927;-81
2024/01/09 04:15:36;;;;;;;;;;;;;;;-7.95;74.72;101690.13;4932138;29;19927;-81
2024/01/09 04:18:02;;;;;;;;;;;;;;;-8.04;74.35;101692.84;4937150;28;19926;-82
2024/01/09 04:20:29;;;;;;;;;;;;;;;-8.04;74.43;101692.84;4936632;28;19927;-82
2024/01/09 04:22:56;;;;;;;;;;;;;;;-8.02;74.84;101686.22;4934268;28;19941;-81
2024/01/09 04:25:23;;;;;;;;;;;;;;;-8.00;74.34;101692.31;4935895;28;19927;-82
2024/01/09 04:27:49;;;;;;;;;;;;;;;-7.99;74.97;101693.19;4945148;28;19935;-81
2024/01/09 04:30:16;;;;;;;;;;;;;;;-8.09;74.38;101695.03;4931105;28;20016;-81
2024/01/09 04:32:43;;;;;;;;;;;;;;;-8.09;74.31;101695.03;4933769;28;19927;-84
2024/01/09 04:35:09;;;;;;;;;;;;;;;-8.03;74.55;101702.28;4939051;28;20354;-81
2024/01/09 04:37:36;;;;;;;;;;;;;;;-8.07;74.48;101701.13;4939945;28;19931;-81
2024/01/09 04:40:03;;;;;;;;;;;;;;;-8.08;74.45;101699.38;4932438;28;19949;-83
2024/01/09 04:42:30;;;;;;;;;;;;;;;-7.91;75.29;101700.72;4936789;28;19935;-81
2024/01/09 04:44:57;;;;;;;;;;;;;;;-7.97;75.06;101702.75;4933445;28;20271;-81
2024/01/09 04:47:23;;;;;;;;;;;;;;;-8.07;74.48;101706.22;4941551;28;19927;-81
2024/01/09 04:49:50;;;;;;;;;;;;;;;-8.03;74.77;101704.81;4934982;28;19974;-85
2024/01/09 04:52:17;;;;;;;;;;;;;;;-8.04;74.89;101706.50;4937114;28;19930;-83
2024/01/09 04:54:43;;;;;;;;;;;;;;;-8.00;74.79;101701.63;4940595;28;19926;-82
2024/01/09 04:57:10;;;;;;;;;;;;;;;-8.07;74.59;101698.56;4932257;29;19983;-81
2024/01/09 04:59:37;;;;;;;;;;;;;;;-8.00;74.81;101699.09;4939108;28;19931;-81
2024/01/09 05:02:03;;;;;;;;;;;;;;;-8.05;74.55;101698.72;4936731;28;19927;-82
2024/01/09 05:04:30;;;;;;;;;;;;;;;-8.10;74.52;101700.88;4933945;28;20017;-81
2024/01/09 05:06:57;;;;;;;;;;;;;;;-8.02;75.13;101703.16;4931993;28;19927;-82
2024/01/09 05:09:23;;;;;;;;;;;;;;;-7.96;74.75;101698.56;4931275;28;19931;-83
2024/01/09 05:11:50;;;;;;;;;;;;;;;-8.00;74.55;101697.41;4929615;28;19927;-81
2024/01/09 05:14:17;;;;;;;;;;;;;;;-8.00;74.87;101696.53;4930307;28;19930;-81
2024/01/09 05:16:43;;;;;;;;;;;;;;;-8.04;74.64;101701.41;4939674;28;20049;-84
2024/01/09 05:19:10;;;;;;;;;;;;;;;-8.12;74.31;101689.69;4934761;28;19930;-81
2024/01/09 05:21:37;;;;;;;;;;;;;;;-8.10;74.88;101695.78;4940095;28;19966;-82
2024/01/09 05:24:04;;;;;;;;;;;;;;;-8.02;74.97;101703.16;4940700;28;19933;-84
2024/01/09 05:26:31;;;;;;;;;;;;;;;-8.01;74.52;101702.41;4933939;28;19927;-81
2024/01/09 05:28:57;;;;;;;;;;;;;;;-7.95;74.82;101698.69;4935155;28;19996;-81
2024/01/09 05:31:24;;;;;;;;;;;;;;;-8.05;74.90;101709.78;4931906;28;19927;-82
2024/01/09 05:33:53;;;;;;;;;;;;;;;-8.12;74.52;101702.44;4938089;28;20025;-82
2024/01/09 05:36:22;;;;;;;;;;;;;;;-8.09;74.49;101707.75;4936133;28;19974;-81
2024/01/09 05:38:52;;;;;;;;;;;;;;;-8.08;74.47;101704.47;4937229;28;19927;-81
2024/01/09 05:41:19;;;;;;;;;;;;;;;-8.11;74.69;101699.13;4936828;28;20017;-81
2024/01/09 05:43:46;;;;;;;;;;;;;;;-8.14;74.54;101696.34;4931024;28;19970;-81
2024/01/09 05:46:13;;;;;;;;;;;;;;;-8.12;74.65;101704.97;4934931;28;19938;-82
2024/01/09 05:48:40;;;;;;;;;;;;;;;-8.02;75.22;101700.59;4938228;28;19926;-82
2024/01/09 05:51:09;;;;;;;;;;;;;;;-8.08;75.04;101695.91;4937509;28;20004;-81
2024/01/09 05:53:36;;;;;;;;;;;;;;;-8.14;74.71;101691.25;4934298;28;19938;-81
2024/01/09 05:56:06;;;;;;;;;;;;;;;-8.17;74.32;101687.53;4939292;28;19927;-81
2024/01/09 05:58:33;;;;;;;;;;;;;;;-8.13;74.78;101694.66;4936745;28;19934;-81
2024/01/09 06:01:00;;;;;;;;;;;;;;;-8.10;75.20;101689.81;4945064;28;19976;-83
2024/01/09 06:03:27;;;;;;;;;;;;;;;-8.09;75.23;101691.59;4941333;28;19927;-81
2024/01/09 06:05:55;;;;;;;;;;;;;;;-8.17;74.65;101693.50;4934286;28;20022;-88
2024/01/09 06:08:23;;;;;;;;;;;;;;;-8.14;75.36;101701.44;4938359;28;19927;-84
2024/01/09 06:10:49;;;;;;;;;;;;;;;-8.19;74.85;101705.25;4934888;28;19926;-81
2024/01/09 06:13:16;;;;;;;;;;;;;;;-8.08;75.86;101703.56;4948939;28;20262;-81
2024/01/09 06:15:43;;;;;;;;;;;;;;;-8.19;75.23;101705.25;4936518;28;19927;-81
2024/01/09 06:18:10;;;;;;;;;;;;;;;-8.20;75.00;101711.09;4934943;28;19930;-81
2024/01/09 06:20:37;;;;;;;;;;;;;;;-8.07;75.49;101706.22;4936148;28;19933;-82
2024/01/09 06:23:04;;;;;;;;;;;;;;;-8.10;74.72;101705.97;4943426;28;19926;-82
2024/01/09 06:25:31;;;;;;;;;;;;;;;-8.17;74.81;101716.44;4932621;28;19986;-85
2024/01/09 06:27:57;;;;;;;;;;;;;;;-8.17;75.18;101713.00;4936593;28;19938;-82
2024/01/09 06:30:24;;;;;;;;;;;;;;;-8.16;75.11;101710.59;4933920;28;19930;-89
2024/01/09 06:32:51;;;;;;;;;;;;;;;-8.18;75.10;101712.13;4950757;28;19930;-84
2024/01/09 06:35:18;;;;;;;;;;;;;;;-8.18;75.29;101712.13;4933965;28;20309;-81
2024/01/09 06:37:45;;;;;;;;;;;;;;;-8.08;75.69;101716.28;4933022;28;19934;-82
2024/01/09 06:40:11;;;;;;;;;;;;;;;-8.20;75.31;101713.66;4932508;28;19926;-81
2024/01/09 06:42:39;;;;;;;;;;;;;;;-8.16;75.96;101714.81;4935393;28;19930;-85
2024/01/09 06:45:06;;;;;;;;;;;;;;;-8.13;75.38;101720.16;4927461;28;19926;-82
2024/01/09 06:47:33;;;;;;;;;;;;;;;-8.19;75.41;101712.91;4936482;28;19931;-82
2024/01/09 06:50:00;;;;;;;;;;;;;;;-8.19;75.48;101714.56;4942351;28;19927;-82
2024/01/09 06:52:27;;;;;;;;;;;;;;;-8.12;75.62;101707.53;4949060;28;19927;-82
2024/01/09 06:54:53;;;;;;;;;;;;;;;-8.07;76.26;101711.31;4939333;28;19934;-81
2024/01/09 06:57:20;;;;;;;;;;;;;;;-8.18;75.42;101708.69;4941211;28;20271;-81
2024/01/09 06:59:47;;;;;;;;;;;;;;;-8.22;75.28;101705.88;4937997;28;19927;-81
2024/01/09 07:02:13;;;;;;;;;;;;;;;-8.27;75.19;101717.38;4944427;28;20029;-82
2024/01/09 07:04:40;;;;;;;;;;;;;;;-8.24;75.88;101716.72;4941093;28;19927;-81
2024/01/09 07:07:07;;;;;;;;;;;;;;;-8.21;75.37;101711.91;4938150;28;19965;-82
2024/01/09 07:09:38;;;;;;;;;;;;;;;-8.21;75.36;101711.91;4937522;28;19997;-82
2024/01/09 07:12:05;;;;;;;;;;;;;;;-8.20;75.58;101718.75;4927482;28;19927;-81
2024/01/09 07:14:32;;;;;;;;;;;;;;;-8.17;75.26;101713.00;4935670;28;20025;-81
2024/01/09 07:16:59;;;;;;;;;;;;;;;-8.26;75.20;101718.25;4937100;28;20021;-83
2024/01/09 07:19:26;;;;;;;;;;;;;;;-8.09;76.20;101723.06;4932352;28;20006;-83
2024/01/09 07:21:52;;;;;;;;;;;;;;;-8.23;75.20;101723.59;4942743;28;19966;-83
2024/01/09 07:24:19;;;;;;;;;;;;;;;-8.20;75.58;101721.28;4933708;29;19943;-83
2024/01/09 07:26:46;;;;;;;;;;;;;;;-8.27;75.36;101725.03;4936505;28;19990;-83
2024/01/09 07:29:16;;;;;;;;;;;;;;;-8.32;75.41;101728.84;4930317;28;19930;-82
2024/01/09 07:31:43;;;;;;;;;;;;;;;-8.32;75.86;101722.84;4934301;28;19938;-82
2024/01/09 07:34:10;;;;;;;;;;;;;;;-8.31;76.10;101729.72;4932977;28;19927;-82
2024/01/09 07:36:36;;;;;;;;;;;;;;;-8.14;76.74;101734.56;4934318;28;19933;-82
2024/01/09 07:39:05;;;;;;;;;;;;;;;-8.28;75.93;101745.28;4940359;28;19934;-82
2024/01/09 07:41:32;;;;;;;;;;;;;;;-8.29;75.81;101730.75;4934838;28;19934;-82
2024/01/09 07:43:59;;;;;;;;;;;;;;;-8.29;75.67;101738.38;4931765;28;19938;-84
2024/01/09 07:46:25;;;;;;;;;;;;;;;-8.34;75.70;101729.47;4935880;28;19927;-81
2024/01/09 07:48:52;;;;;;;;;;;;;;;-8.26;75.36;101738.63;4933133;28;20488;-82
2024/01/09 07:51:19;;;;;;;;;;;;;;;-8.20;75.40;101734.03;4940824;28;20013;-81
2024/01/09 07:53:45;;;;;;;;;;;;;;;-8.07;75.29;101735.91;4940039;28;19927;-82
2024/01/09 07:56:13;;;;;;;;;;;;;;;-8.13;74.92;101738.84;4933863;28;19938;-83
2024/01/09 07:58:40;;;;;;;;;;;;;;;-8.06;75.17;101733.50;4923067;28;19934;-82
2024/01/09 08:01:07;;;;;;;;;;;;;;;-8.13;74.51;101743.94;4942950;28;19930;-82
2024/01/09 08:03:33;;;;;;;;;;;;;;;-8.13;74.37;101745.63;4935632;28;19951;-82
2024/01/09 08:06:00;;;;;;;;;;;;;;;-8.10;74.00;101740.78;4931865;28;19990;-81
2024/01/09 08:08:27;;;;;;;;;;;;;;;-7.99;73.55;101744.16;4932008;28;19927;-83
2024/01/09 08:10:53;;;;;;;;;;;;;;;-8.01;74.08;101745.72;4931480;28;19962;-83
2024/01/09 08:13:20;;;;;;;;;;;;;;;-7.94;73.73;101748.00;4938980;28;19954;-82
2024/01/09 08:15:47;;;;;;;;;;;;;;;-7.91;73.81;101744.03;4939113;28;20007;-82
2024/01/09 08:18:13;;;;;;;;;;;;;;;-7.88;73.59;101743.38;4935092;28;19926;-82
2024/01/09 08:20:44;;;;;;;;;;;;;;;-7.83;73.19;101742.09;4930642;28;20037;-82
2024/01/09 08:23:11;;;;;;;;;;;;;;;-7.84;73.05;101740.31;4930953;28;19933;-83
2024/01/09 08:25:38;;;;;;;;;;;;;;;-7.77;73.54;101752.78;4934777;28;19926;-82
2024/01/09 08:28:05;;;;;;;;;;;;;;;-7.70;72.20;101741.41;4938422;28;19926;-82
2024/01/09 08:30:31;;;;;;;;;;;;;;;-7.65;72.18;101746.88;4933888;28;19933;-83
2024/01/09 08:32:59;;;;;;;;;;;;;;;-7.62;71.69;101745.44;4933423;28;19938;-81
2024/01/09 08:35:26;;;;;;;;;;;;;;;-7.55;72.17;101744.28;4933401;28;19934;-82
2024/01/09 08:37:52;;;;;;;;;;;;;;;-7.49;71.73;101747.31;4939430;28;20393;-82
2024/01/09 08:40:19;;;;;;;;;;;;;;;-7.46;71.28;101745.00;4928347;28;19931;-81
2024/01/09 08:42:46;;;;;;;;;;;;;;;-7.39;71.65;101746.38;4941220;28;19927;-82
2024/01/09 08:45:14;;;;;;;;;;;;;;;-7.35;70.59;101748.41;4932326;28;19927;-82
2024/01/09 08:47:41;;;;;;;;;;;;;;;-7.29;70.95;101742.88;4936350;28;19933;-82
2024/01/09 08:50:08;;;;;;;;;;;;;;;-7.30;70.79;101736.88;4930473;28;19927;-83
2024/01/09 08:52:35;;;;;;;;;;;;;;;-7.25;70.43;101739.81;4938989;28;19927;-82
2024/01/09 08:55:03;;;;;;;;;;;;;;;-7.20;70.29;101736.84;4940640;28;19969;-82
2024/01/09 08:57:29;;;;;;;;;;;;;;;-7.18;70.56;101736.97;4934234;28;19930;-82
2024/01/09 08:59:59;;;;;;;;;;;;;;;-7.11;71.16;101733.19;4934482;28;19966;-83
2024/01/09 09:02:26;;;;;;;;;;;;;;;-7.09;70.85;101737.66;4931619;28;19994;-84
2024/01/09 09:04:53;;;;;;;;;;;;;;;-7.03;69.58;101730.47;4934549;28;19937;-82
2024/01/09 09:07:19;;;;;;;;;;;;;;;-6.94;69.41;101726.84;4931143;28;19937;-82
2024/01/09 09:09:46;;;;;;;;;;;;;;;-6.85;69.50;101732.63;4943415;28;19934;-84
2024/01/09 09:12:13;;;;;;;;;;;;;;;-6.80;69.33;101731.31;4939619;28;19927;-82
2024/01/09 09:14:40;;;;;;;;;;;;;;;-6.78;69.29;101727.22;4934498;28;19935;-84
2024/01/09 09:17:08;;;;;;;;;;;;;;;-6.65;67.89;101735.03;4931131;28;19926;-82
2024/01/09 09:19:34;;;;;;;;;;;;;;;-6.52;66.76;101729.16;4927547;28;20017;-84
2024/01/09 09:22:01;;;;;;;;;;;;;;;-6.53;66.12;101731.59;4944533;28;19927;-82
2024/01/09 09:24:28;;;;;;;;;;;;;;;-6.48;66.12;101728.63;4949953;28;19933;-81
2024/01/09 09:26:54;;;;;;;;;;;;;;;-6.44;66.15;101734.88;4934701;28;19933;-83
2024/01/09 09:29:21;;;;;;;;;;;;;;;-6.37;65.21;101729.44;4946102;28;19974;-82
2024/01/09 09:32:02;;;;;;;;;;;;;;;-6.25;64.75;101739.66;4933633;28;19966;-84
2024/01/09 09:34:29;;;;;;;;;;;;;;;-6.18;65.11;101746.13;4934215;28;19933;-82
2024/01/09 09:36:56;;;;;;;;;;;;;;;-6.12;64.75;101737.22;4948738;28;19958;-84
2024/01/09 09:39:22;;;;;;;;;;;;;;;-6.07;64.38;101737.56;4944595;28;19926;-82
2024/01/09 09:41:51;;;;;;;;;;;;;;;-6.05;64.59;101733.47;4939441;28;19972;-82
2024/01/09 09:44:18;;;;;;;;;;;;;;;-6.00;63.66;101733.78;4937611;28;19927;-82
2024/01/09 09:46:44;;;;;;;;;;;;;;;-5.98;62.15;101739.88;4936388;28;19994;-82
2024/01/09 09:49:11;;;;;;;;;;;;;;;-5.93;62.55;101731.75;4937056;28;19931;-82
2024/01/09 09:51:38;;;;;;;;;;;;;;;-5.88;62.30;101736.31;4938460;28;20022;-82
2024/01/09 09:54:05;;;;;;;;;;;;;;;-5.73;62.12;101731.41;4935420;28;19926;-83
2024/01/09 09:56:32;;;;;;;;;;;;;;;-5.72;61.27;101726.41;4932698;28;19942;-82
2024/01/09 09:58:59;;;;;;;;;;;;;;;-5.68;61.96;101724.94;4941116;28;19983;-83
2024/01/09 10:01:25;;;;;;;;;;;;;;;-5.63;61.34;101724.50;4937202;28;19934;-82
2024/01/09 10:03:56;;;;;;;;;;;;;;;-5.59;61.86;101717.91;4940848;28;19927;-82
2024/01/09 10:06:24;;;;;;;;;;;;;;;-5.56;62.23;101719.81;4935648;28;19927;-82
2024/01/09 10:08:50;;;;;;;;;;;;;;;-5.48;61.74;101714.44;4933390;28;19938;-83
2024/01/09 10:11:17;;;;;;;;;;;;;;;-5.50;60.47;101712.59;4929965;29;19978;-83
2024/01/09 10:13:44;;;;;;;;;;;;;;;-5.49;59.81;101711.78;4944798;28;19974;-82
2024/01/09 10:16:11;;;;;;;;;;;;;;;-5.33;59.98;101706.97;4935742;28;20286;-83
2024/01/09 10:18:38;;;;;;;;;;;;;;;-5.33;59.63;101704.41;4935291;28;19926;-82
2024/01/09 10:21:05;;;;;;;;;;;;;;;-5.30;59.88;101702.06;4937576;28;19927;-82
2024/01/09 10:23:34;;;;;;;;;;;;;;;-5.26;59.89;101706.63;4937626;28;19948;-83
2024/01/09 10:26:00;;;;;;;;;;;;;;;-5.20;58.98;101705.25;4919357;28;19931;-82
2024/01/09 10:28:27;;;;;;;;;;;;;;;-5.21;58.98;101694.13;4923779;28;19927;-82
2024/01/09 10:30:54;;;;;;;;;;;;;;;-5.13;59.24;101703.19;4934235;28;19938;-82
2024/01/09 10:33:20;;;;;;;;;;;;;;;-5.16;58.28;101702.13;4936896;28;19937;-82
2024/01/09 10:35:47;;;;;;;;;;;;;;;-5.05;58.97;101696.06;4938455;28;19984;-82
2024/01/09 10:38:14;;;;;;;;;;;;;;;-5.00;58.79;101691.25;4936297;28;19977;-82
2024/01/09 10:40:41;;;;;;;;;;;;;;;-4.97;58.69;101700.00;4936800;28;19927;-82
2024/01/09 10:43:08;;;;;;;;;;;;;;;-4.89;57.66;101693.75;4946925;28;20382;-81
2024/01/09 10:45:34;;;;;;;;;;;;;;;-4.82;58.52;101683.91;4934193;28;19927;-83
2024/01/09 10:48:01;;;;;;;;;;;;;;;-4.76;58.34;101679.22;4932901;28;19954;-82
2024/01/09 10:50:28;;;;;;;;;;;;;;;-4.79;58.85;101684.13;4934415;28;19927;-84
2024/01/09 10:52:55;;;;;;;;;;;;;;;-4.69;58.01;101675.38;4932278;28;19972;-84
2024/01/09 10:55:22;;;;;;;;;;;;;;;-4.66;58.69;101681.59;4940139;28;20021;-83
2024/01/09 10:57:49;;;;;;;;;;;;;;;-4.59;59.01;101682.88;4941426;28;19998;-82
2024/01/09 11:00:16;;;;;;;;;;;;;;;-4.56;58.34;101685.66;4934765;28;19941;-83
2024/01/09 11:02:43;;;;;;;;;;;;;;;-4.63;57.28;101680.94;4934171;28;19926;-84
2024/01/09 11:05:10;;;;;;;;;;;;;;;-4.39;57.65;101681.63;4940499;28;20025;-83
2024/01/09 11:07:37;;;;;;;;;;;;;;;-4.39;58.34;101686.75;4936421;28;19927;-81
2024/01/09 11:10:06;;;;;;;;;;;;;;;-4.32;58.31;101675.22;4940263;28;20034;-83
2024/01/09 11:12:33;;;;;;;;;;;;;;;-4.35;57.98;101678.47;4940423;28;19973;-83
2024/01/09 11:15:20;;;;;;;;;;;;;;;-4.33;57.43;101671.78;4938868;28;19927;-82
2024/01/09 11:17:48;;;;;;;;;;;;;;;-4.23;57.27;101670.69;4939737;29;19933;-83
2024/01/09 11:20:16;;;;;;;;;;;;;;;-4.15;57.46;101663.50;4935800;28;20022;-84
2024/01/09 11:22:43;;;;;;;;;;;;;;;-3.98;57.12;101657.78;4944933;28;19927;-82
2024/01/09 11:25:11;;;;;;;;;;;;;;;-3.89;56.79;101660.03;4936109;28;19931;-82
2024/01/09 11:27:39;;;;;;;;;;;;;;;-3.92;56.18;101653.03;4940599;28;19926;-81
2024/01/09 11:30:06;;;;;;;;;;;;;;;-3.96;56.11;101650.19;4938849;28;19930;-83
2024/01/09 11:32:33;;;;;;;;;;;;;;;-3.94;55.82;101646.94;4936734;28;19981;-82
2024/01/09 11:35:13;;;;;;;;;;;;;;;-3.73;56.74;101642.22;4943534;28;19933;-82
2024/01/09 11:37:44;;;;;;;;;;;;;;;-3.70;55.28;101646.69;4933309;28;20033;-82
2024/01/09 11:40:11;;;;;;;;;;;;;;;-3.75;55.06;101633.56;4936257;28;19931;-82
2024/01/09 11:42:38;;;;;;;;;;;;;;;-3.34;55.20;101636.91;4940906;28;19926;-82
2024/01/09 11:45:09;;;;;;;;;;;;;;;-3.53;53.19;101628.06;4942546;28;19934;-81
2024/01/09 11:47:39;;;;;;;;;;;;;;;-3.21;54.21;101629.13;4937508;28;19927;-81
2024/01/09 11:50:09;;;;;;;;;;;;;;;-3.19;52.77;101630.09;4940239;28;19931;-82
2024/01/09 11:52:37;;;;;;;;;;;;;;;-3.12;52.53;101623.66;4947438;28;20012;-82
2024/01/09 11:55:07;;;;;;;;;;;;;;;-3.05;52.53;101619.78;4937764;28;19927;-81
2024/01/09 11:57:34;;;;;;;;;;;;;;;-2.94;51.79;101618.72;4944788;28;19976;-82
2024/01/09 12:00:02;;;;;;;;;;;;;;;-2.83;51.00;101616.78;4933145;28;20114;-81
2024/01/09 12:02:29;;;;;;;;;;;;;;;-2.69;52.87;101599.59;4937243;28;19973;-82
2024/01/09 12:04:57;;;;;;;;;;;;;;;-2.97;52.19;101613.38;4944146;28;19926;-88
2024/01/09 12:07:23;;;;;;;;;;;;;;;-2.73;52.78;101598.50;4942306;28;19926;-84
2024/01/09 12:09:50;;;;;;;;;;;;;;;-2.86;52.24;101591.78;4937837;28;20013;-82
2024/01/09 12:12:21;;;;;;;;;;;;;;;-2.84;51.82;101592.78;4940866;28;19934;-81
2024/01/09 12:14:54;;;;;;;;;;;;;;;-2.76;52.37;101594.91;4938301;28;19926;-84
2024/01/09 12:17:23;;;;;;;;;;;;;;;-2.71;52.12;101588.31;4941312;28;19931;-81
2024/01/09 12:19:51;;;;;;;;;;;;;;;-2.73;51.90;101582.22;4940460;28;20061;-83
2024/01/09 12:22:19;;;;;;;;;;;;;;;-2.73;51.71;101585.66;4935283;28;19935;-85
2024/01/09 12:24:47;;;;;;;;;;;;;;;-2.87;51.62;101579.75;4939678;28;19942;-87
2024/01/09 12:27:14;;;;;;;;;;;;;;;-2.90;51.55;101579.53;4945060;28;19927;-86
2024/01/09 12:29:42;;;;;;;;;;;;;;;-2.89;51.45;101578.75;4936051;28;19926;-85
2024/01/09 12:32:09;;;;;;;;;;;;;;;-2.64;51.59;101577.59;4916365;29;20002;-84
2024/01/09 12:34:36;;;;;;;;;;;;;;;-2.52;51.14;101570.59;4930979;28;19927;-84